EW6136 Nykabing Mors DK current weather conditions

sailwx.info

Wind from 314 at 0 knots gusting 4

Air temperature 3.9° C
Dewpoint 1.3° C

Last reported at 2019-Dec-09 18:00 UTC.
Time now 2019-Dec-09 18:24 UTC

Location: N 56°50' E 008°39'.
View on Google Maps.

See reports from other nearby stations

  
Tides and Currents Weather Stations Pressure Air Temp Water Temp Dewpoint Dewpoint Depression Visibility Wind Speed Wind Dir Waves Ship Positions
date/time (UTC)wind fromknots sea level pressurealtimeterstation pressurevisibilityair tempwater tempwave heightnotes
2019-Dec-09 18:00 314 0 gusting 4 3.9
2019-Dec-09 17:46 313 1 gusting 8 4.4
2019-Dec-09 17:30 335 4 gusting 11 4.4
2019-Dec-09 17:17 006 6 gusting 13 3.9
2019-Dec-09 17:01 006 8 gusting 15 3.9
2019-Dec-09 16:47 307 4 gusting 13 3.9
2019-Dec-09 16:31 003 3 gusting 13 3.9
2019-Dec-09 16:17 010 5 gusting 14 3.3
2019-Dec-09 16:01 317 7 gusting 18 3.3
2019-Dec-09 15:46 331 9 gusting 19 3.9
2019-Dec-09 15:31 344 6 gusting 24 3.9
2019-Dec-09 15:15 340 6 gusting 15 5.0
2019-Dec-09 15:00 330 7 gusting 18 6.7
2019-Dec-09 14:45 050 5 gusting 16 6.7
2019-Dec-09 14:30 113 4 gusting 18 6.7
2019-Dec-09 14:15 316 6 gusting 19 6.7
2019-Dec-09 14:01 091 5 gusting 16 6.7
2019-Dec-09 13:45 097 3 gusting 13 6.7
2019-Dec-09 13:30 127 4 gusting 19 6.7
2019-Dec-09 13:15 294 3 gusting 13 7.2
2019-Dec-09 13:00 153 6 gusting 17 7.2
2019-Dec-09 12:45 005 3 gusting 13 7.2
2019-Dec-09 12:33 278 2 gusting 12 6.7
2019-Dec-09 12:30 030 3 gusting 12 6.7
2019-Dec-09 12:17 324 3 gusting 11 7.2
2019-Dec-09 12:02 203 3 gusting 14 7.2
2019-Dec-09 11:46 326 2 gusting 19 6.7
2019-Dec-09 11:32 258 2 gusting 10 7.2
2019-Dec-09 11:17 349 3 gusting 12 7.2
2019-Dec-09 11:01 065 1 7.2
2019-Dec-09 10:46 273 1 7.2
2019-Dec-09 10:31 210 1 6.7
2019-Dec-09 10:16 121 0 7.2
2019-Dec-09 10:01
2019-Dec-09 09:46
2019-Dec-09 09:30
2019-Dec-09 09:16
2019-Dec-09 09:01
2019-Dec-09 08:45
2019-Dec-09 08:30
2019-Dec-09 08:15
2019-Dec-09 08:00
2019-Dec-09 07:47
2019-Dec-09 07:31
2019-Dec-09 07:16
2019-Dec-09 07:02
2019-Dec-09 06:46
2019-Dec-09 06:31
2019-Dec-09 06:16
2019-Dec-09 06:01
2019-Dec-09 05:46
2019-Dec-09 05:31
2019-Dec-09 05:15
2019-Dec-09 05:00
2019-Dec-09 04:45
2019-Dec-09 04:30
2019-Dec-09 04:15
2019-Dec-09 04:00
2019-Dec-09 03:47
2019-Dec-09 03:31
2019-Dec-09 03:16
2019-Dec-09 03:01
2019-Dec-09 02:46
2019-Dec-09 02:30
2019-Dec-09 02:16
2019-Dec-09 02:00
2019-Dec-09 01:46
2019-Dec-09 01:30
2019-Dec-09 01:15
2019-Dec-09 01:00
2019-Dec-09 00:45
2019-Dec-09 00:30
2019-Dec-09 00:17
2019-Dec-09 00:01
2019-Dec-08 23:46 233 3 gusting 15 6.1
2019-Dec-08 23:31 238 3 gusting 15 6.7
2019-Dec-08 23:16 301 4 gusting 13 7.2
2019-Dec-08 23:01 287 3 gusting 11 6.7
2019-Dec-08 22:46 256 2 gusting 14 7.2
2019-Dec-08 22:31 293 3 gusting 14 7.2
2019-Dec-08 22:16 243 3 gusting 14 6.7
2019-Dec-08 22:00 169 2 gusting 14 6.1
2019-Dec-08 21:45 217 3 gusting 14 5.6
2019-Dec-08 21:30 302 5 gusting 13 7.2
2019-Dec-08 21:15 233 5 gusting 13 7.2
2019-Dec-08 21:00 206 2 gusting 13 7.2
2019-Dec-08 20:45 217 1 gusting 13 6.7
2019-Dec-08 20:31 212 3 gusting 13 6.7
2019-Dec-08 20:17 250 5 gusting 13 7.2
2019-Dec-08 20:01 257 3 gusting 8 6.7
2019-Dec-08 19:46 210 1 gusting 6 6.7
2019-Dec-08 19:30 281 6 gusting 20 7.2
2019-Dec-08 19:15 299 3 gusting 10 7.2
2019-Dec-08 19:01 249 4 gusting 9 6.7
2019-Dec-08 18:46 314 4 gusting 12 7.2
2019-Dec-08 18:30 285 5 gusting 12 7.2
2019-Dec-08 18:15 256 4 gusting 12 6.7
2019-Dec-08 18:01 260 6 gusting 13 7.2
2019-Dec-08 17:45 259 5 gusting 13 7.2
2019-Dec-08 17:30 267 3 gusting 13 7.2
2019-Dec-08 17:02 211 4 gusting 13 7.2
2019-Dec-08 16:47 162 3 gusting 13 7.2
2019-Dec-08 16:31 245 2 gusting 13 7.2
2019-Dec-08 16:01 208 6 gusting 13 7.2
2019-Dec-08 15:46 259 1 gusting 7 6.7
2019-Dec-08 15:30 230 6 gusting 17 6.7
2019-Dec-08 15:00 222 4 gusting 13 7.8
2019-Dec-08 14:45 229 4 gusting 13 7.8
2019-Dec-08 14:30 274 3 gusting 13 7.8
2019-Dec-08 14:00 194 6 gusting 17 7.8
2019-Dec-08 13:48 285 4 gusting 15 8.3
2019-Dec-08 13:32 293 3 gusting 15 8.3
2019-Dec-08 13:16 247 3 gusting 15 8.3
2019-Dec-08 13:01 245 5 gusting 13 8.9
2019-Dec-08 12:46 242 4 gusting 14 8.9
2019-Dec-08 12:31 296 6 gusting 14 9.4
2019-Dec-08 12:15 246 4 gusting 12 8.9
2019-Dec-08 12:00 225 4 gusting 13 9.4
2019-Dec-08 11:45 165 4 gusting 19 9.4
2019-Dec-08 11:30 238 4 gusting 15 9.4
2019-Dec-08 11:15 077 5 gusting 13 9.4
2019-Dec-08 11:00 257 5 gusting 12 9.4
2019-Dec-08 10:45 248 4 gusting 14 9.4
2019-Dec-08 10:32 244 5 gusting 15 9.4
2019-Dec-08 10:16 215 4 9.4
2019-Dec-08 10:02
2019-Dec-08 09:47
2019-Dec-08 09:31
2019-Dec-08 09:16
2019-Dec-08 09:01
2019-Dec-08 08:46
2019-Dec-08 08:30
2019-Dec-08 08:16
2019-Dec-08 08:00
2019-Dec-08 07:45
2019-Dec-08 07:30
2019-Dec-08 07:15
2019-Dec-08 07:02
2019-Dec-08 06:48
2019-Dec-08 06:31
2019-Dec-08 06:17
2019-Dec-08 06:01
2019-Dec-08 05:46
2019-Dec-08 05:30
2019-Dec-08 05:16
2019-Dec-08 05:00
2019-Dec-08 04:45
2019-Dec-08 04:30
2019-Dec-08 04:15
2019-Dec-08 04:00
2019-Dec-08 03:45
2019-Dec-08 03:31
2019-Dec-08 03:17
2019-Dec-08 03:01
2019-Dec-08 02:47
2019-Dec-08 02:31
2019-Dec-08 02:16
2019-Dec-08 02:02
2019-Dec-08 01:46
2019-Dec-08 01:30
2019-Dec-08 01:15
2019-Dec-08 01:00
2019-Dec-08 00:45 174 1 gusting 7 -67.8
2019-Dec-08 00:30 200 2 gusting 6 7.2
2019-Dec-08 00:15 138 1 gusting 6 7.2
2019-Dec-08 00:02 207 1 gusting 6 6.7
2019-Dec-07 23:47 179 0 gusting 6 6.7
2019-Dec-07 23:32 196 0 gusting 4 6.7
2019-Dec-07 23:15 146 0 gusting 2 6.7
2019-Dec-07 23:01 169 6.7
2019-Dec-07 22:46 256 0 gusting 2 6.7
2019-Dec-07 22:32 256 1 gusting 3 6.1
2019-Dec-07 22:16 209 6.1
2019-Dec-07 22:01 157 6.1
2019-Dec-07 21:46 233 6.1
2019-Dec-07 21:31 238 6.1
2019-Dec-07 21:16 228 0 gusting 3 6.1
2019-Dec-07 21:01 255 6.1
2019-Dec-07 20:46 213 6.1
2019-Dec-07 20:31 229 0 gusting 3 6.1
2019-Dec-07 20:16 226 0 gusting 5 6.1
2019-Dec-07 20:01 271 0 gusting 4 5.6
2019-Dec-07 19:46 268 5.6
2019-Dec-07 19:31 287 5.6
2019-Dec-07 19:16 228 5.6
2019-Dec-07 19:00 239 5.0
2019-Dec-07 18:46 251 5.0
2019-Dec-07 18:31 271 5.0
2019-Dec-07 18:15 258 5.0
2019-Dec-07 18:00 233 4.4